Akogare — JPDL — position and weather

sailwx.info

Track history (hours):
 
Tides and Currents Weather Stations Pressure Air Temp Water Temp Dewpoint Dewpoint Depression Visibility Wind Speed Wind Dir Waves Ship Positions

Akogare (Japan)

Ship's website: http://www.akogare.or.jp/eng/top.html

Last reported at 2019-Oct-11 11:34 UTC. Time now 2019-Oct-17 15:06 UTC.
Position N 34°26' E 134°25'.

Length 52 m; draft 4.5 m.

Type: Sailing vessel. MMSI: 431005001.

Date/timePositionNaut miles runAvg speedWind from/ knotsBaromVisibWave heightAir tempDewpointWater temp
2019-Oct-11 11:34N 34°26' E 134°25'3 6.8
2019-Oct-11 11:07N 34°28' E 134°28'1 6.7
2019-Oct-11 11:00N 34°28' E 134°29'4 7.2
2019-Oct-11 10:30N 34°29' E 134°33'4 7.3
2019-Oct-11 10:00N 34°31' E 134°37'4 7.8
2019-Oct-11 09:29N 34°32' E 134°41'4 8.1
2019-Oct-11 09:00N 34°34' E 134°46'4 8.7
2019-Oct-11 08:30N 34°35' E 134°51'5 8.7
2019-Oct-11 07:56N 34°37' E 134°56'3 7.4
2019-Oct-11 07:30N 34°38' E 135°00'3 6.2
2019-Oct-11 07:00N 34°36' E 135°04'3 6.7
2019-Oct-11 06:30N 34°37' E 135°07'3 6.9
2019-Oct-11 06:00N 34°39' E 135°11'2 3.6
2019-Oct-11 05:27N 34°41' E 135°11'0 0.0
2019-Oct-11 04:57N 34°41' E 135°11'0 0.0
2019-Oct-11 04:27N 34°41' E 135°11'0 0.0
2019-Oct-11 03:57N 34°41' E 135°11'0 0.0
2019-Oct-11 03:27N 34°41' E 135°11'0 0.0
2019-Oct-11 02:45N 34°41' E 135°11'0 0.0
2019-Oct-11 02:27N 34°41' E 135°11'0 0.0
2019-Oct-11 01:51N 34°41' E 135°11'0 0.0
2019-Oct-11 01:27N 34°41' E 135°11'0 0.0
2019-Oct-11 00:57N 34°41' E 135°11'0 0.0
2019-Oct-11 00:27N 34°41' E 135°11'0 0.0
2019-Oct-10 23:57N 34°41' E 135°11'0 0.0
2019-Oct-10 23:27N 34°41' E 135°11'0 0.0
2019-Oct-10 22:57N 34°41' E 135°11'0 0.0
2019-Oct-10 22:27N 34°41' E 135°11'0 0.0
2019-Oct-10 21:51N 34°41' E 135°11'0 0.0
2019-Oct-10 21:27N 34°41' E 135°11'0 0.0
2019-Oct-10 20:51N 34°41' E 135°11'0 0.0
2019-Oct-10 20:27N 34°41' E 135°11'0 0.0
2019-Oct-10 19:57N 34°41' E 135°11'0 0.0
2019-Oct-10 19:15N 34°41' E 135°11'0 0.0
2019-Oct-10 18:57N 34°41' E 135°11'0 0.0
2019-Oct-10 18:27N 34°41' E 135°11'0 0.0
2019-Oct-10 17:57N 34°41' E 135°11'0 0.0
2019-Oct-10 17:27N 34°41' E 135°11'0 0.0
2019-Oct-10 16:57N 34°41' E 135°11'0 0.0
2019-Oct-10 16:21N 34°41' E 135°11'0 0.0
2019-Oct-10 15:57N 34°41' E 135°11'0 0.0
2019-Oct-10 15:27N 34°41' E 135°11'0 0.0
2019-Oct-10 14:57N 34°41' E 135°11'0 0.0
2019-Oct-10 14:27N 34°41' E 135°11'0 0.0
2019-Oct-10 13:57N 34°41' E 135°11'0 0.0
2019-Oct-10 13:27N 34°41' E 135°11'0 0.0
2019-Oct-10 12:57N 34°41' E 135°11'0 0.0
2019-Oct-10 12:27N 34°41' E 135°11'0 0.0
2019-Oct-10 11:57N 34°41' E 135°11'0 0.0
2019-Oct-10 11:15N 34°41' E 135°11'0 0.0
2019-Oct-10 10:51N 34°41' E 135°11'0 0.0
2019-Oct-10 10:27N 34°41' E 135°11'0 0.0
2019-Oct-10 09:57N 34°41' E 135°11'0 0.0
2019-Oct-10 09:21N 34°41' E 135°11'0 0.0
2019-Oct-10 08:51N 34°41' E 135°11'0 0.0
2019-Oct-10 08:27N 34°41' E 135°11'0 0.0
2019-Oct-10 07:57N 34°41' E 135°11'0 0.0
2019-Oct-10 07:27N 34°41' E 135°11'0 0.0
2019-Oct-10 06:57N 34°41' E 135°11'0 0.0
2019-Oct-10 06:27N 34°41' E 135°11'0 0.0
2019-Oct-10 05:57N 34°41' E 135°11'0 0.0
2019-Oct-10 05:27N 34°41' E 135°11'0 0.0
2019-Oct-10 04:45N 34°41' E 135°11'0 0.0
2019-Oct-10 04:27N 34°41' E 135°11'0 0.0
2019-Oct-10 03:57N 34°41' E 135°11'0 0.0
2019-Oct-10 03:21N 34°41' E 135°11'0 0.0
2019-Oct-10 02:57N 34°41' E 135°11'0 0.0
2019-Oct-10 02:27N 34°41' E 135°11'0 0.0
2019-Oct-10 01:57N 34°41' E 135°11'0 0.0
2019-Oct-10 01:27N 34°41' E 135°11'0 0.0
2019-Oct-10 00:51N 34°41' E 135°11'0 0.0
2019-Oct-10 00:27N 34°41' E 135°11'0 0.0
2019-Oct-09 23:51N 34°41' E 135°11'0 0.0
2019-Oct-09 23:24N 34°41' E 135°11'0 0.0
2019-Oct-09 22:48N 34°41' E 135°11'0 0.0
2019-Oct-09 22:30N 34°41' E 135°11'0 0.0
2019-Oct-09 22:00N 34°41' E 135°11'0 0.0
2019-Oct-09 21:30N 34°41' E 135°11'0 0.0
2019-Oct-09 21:00N 34°41' E 135°11'0 0.0
2019-Oct-09 20:30N 34°41' E 135°11'0 0.0
2019-Oct-09 20:00N 34°41' E 135°11'0 0.0
2019-Oct-09 19:30N 34°41' E 135°11'0 0.0
2019-Oct-09 19:00N 34°41' E 135°11'0 0.0
2019-Oct-09 18:24N 34°41' E 135°11'0 0.0
2019-Oct-09 18:00N 34°41' E 135°11'0 0.0
2019-Oct-09 17:30N 34°41' E 135°11'0 0.0
2019-Oct-09 17:00N 34°41' E 135°11'0 0.0
2019-Oct-09 16:30N 34°41' E 135°11'0 0.0
2019-Oct-09 16:00N 34°41' E 135°11'0 0.0
2019-Oct-09 15:24N 34°41' E 135°11'0 0.0
2019-Oct-09 15:00N 34°41' E 135°11'0 0.0
2019-Oct-09 14:30N 34°41' E 135°11'0 0.0
2019-Oct-09 14:00N 34°41' E 135°11'0 0.0
2019-Oct-09 13:30N 34°41' E 135°11'0 0.0
2019-Oct-09 13:00N 34°41' E 135°11'0 0.0
2019-Oct-09 12:30N 34°41' E 135°11'0 0.0
2019-Oct-09 12:00N 34°41' E 135°11'0 0.0
2019-Oct-09 11:30N 34°41' E 135°11'0 0.0
2019-Oct-09 10:54N 34°41' E 135°11'0 0.0
2019-Oct-09 10:24N 34°41' E 135°11'0 0.0
2019-Oct-09 10:00N 34°41' E 135°11'0 0.0
2019-Oct-09 09:30N 34°41' E 135°11'0 0.0
2019-Oct-09 09:00N 34°41' E 135°11'0 0.0
2019-Oct-09 08:30N 34°41' E 135°11'0 0.0
2019-Oct-09 07:54N 34°41' E 135°11'0 0.0
2019-Oct-09 07:30N 34°41' E 135°11'0 0.0
2019-Oct-09 06:58N 34°41' E 135°11'0 0.0
2019-Oct-09 06:28N 34°41' E 135°11'0 0.0
2019-Oct-09 05:52N 34°41' E 135°11'0 0.0
2019-Oct-09 05:28N 34°41' E 135°11'0 0.0
2019-Oct-09 04:58N 34°41' E 135°11'0 0.0
2019-Oct-09 04:28N 34°41' E 135°11'0 0.0
2019-Oct-09 03:58N 34°41' E 135°11'0 0.0
2019-Oct-09 03:22N 34°41' E 135°11'0 0.0
2019-Oct-09 02:58N 34°41' E 135°11'0 0.0
2019-Oct-09 02:28N 34°41' E 135°11'0 0.0
2019-Oct-09 01:58N 34°41' E 135°11'0 0.0
2019-Oct-09 01:28N 34°41' E 135°11'0 0.0
2019-Oct-09 00:58N 34°41' E 135°11'0 0.0
2019-Oct-09 00:28N 34°41' E 135°11'0 0.0
2019-Oct-08 23:58N 34°41' E 135°11'0 0.0
2019-Oct-08 23:28N 34°41' E 135°11'0 0.0
2019-Oct-08 22:52N 34°41' E 135°11'0 0.0
2019-Oct-08 22:22N 34°41' E 135°11'0 0.0
2019-Oct-08 21:52N 34°41' E 135°11'0 0.0
2019-Oct-08 21:28N 34°41' E 135°11'0 0.0
2019-Oct-08 20:58N 34°41' E 135°11'0 0.0
2019-Oct-08 20:28N 34°41' E 135°11'0 0.0
2019-Oct-08 19:58N 34°41' E 135°11'0 0.0
2019-Oct-08 19:28N 34°41' E 135°11'0 0.0
2019-Oct-08 18:58N 34°41' E 135°11'0 0.0
2019-Oct-08 18:28N 34°41' E 135°11'0 0.0
2019-Oct-08 17:58N 34°41' E 135°11'0 0.0
2019-Oct-08 17:28N 34°41' E 135°11'0 0.0
2019-Oct-08 16:58N 34°41' E 135°11'0 0.0
2019-Oct-08 16:28N 34°41' E 135°11'0 0.0
2019-Oct-08 15:58N 34°41' E 135°11'0 0.0
2019-Oct-08 15:28N 34°41' E 135°11'0 0.0
2019-Oct-08 14:58N 34°41' E 135°11'0 0.0
2019-Oct-08 14:28N 34°41' E 135°11'0 0.0
2019-Oct-08 13:58N 34°41' E 135°11'0 0.0
2019-Oct-08 13:28N 34°41' E 135°11'0 0.0
2019-Oct-08 12:58N 34°41' E 135°11'0 0.0
2019-Oct-08 12:22N 34°41' E 135°11'0 0.0
2019-Oct-08 11:58N 34°41' E 135°11'0 0.0
2019-Oct-08 11:28N 34°41' E 135°11'0 0.7
2019-Oct-08 11:00N 34°41' E 135°11'3 5.8
2019-Oct-08 10:30N 34°38' E 135°11'3 5.8
2019-Oct-08 10:00N 34°35' E 135°10'3 5.6
2019-Oct-08 09:30N 34°32' E 135°09'3 6.0
2019-Oct-08 09:00N 34°30' E 135°08'3 6.2
2019-Oct-08 08:30N 34°27' E 135°07'3 6.3
2019-Oct-08 08:00N 34°24' E 135°06'5 6.4
2019-Oct-08 07:15N 34°19' E 135°04'2 0.6
2019-Oct-08 04:11N 34°17' E 135°04'1 4.9
2019-Oct-08 03:57N 34°18' E 135°04'1 1.1
2019-Oct-08 03:15N 34°18' E 135°03'0 0.0
2019-Oct-08 02:57N 34°18' E 135°03'0 0.0
2019-Oct-08 02:30N 34°18' E 135°03'0 0.0
2019-Oct-08 01:48N 34°18' E 135°03'0 0.0
2019-Oct-08 01:22N 34°18' E 135°03'0 0.0
2019-Oct-08 00:45N 34°18' E 135°03'0 0.0
2019-Oct-08 00:23N 34°18' E 135°03'0 0.0
2019-Oct-07 23:59N 34°18' E 135°03'0 0.3
2019-Oct-07 23:28N 34°18' E 135°03'2 4.8
2019-Oct-07 22:59N 34°20' E 135°05'3 5.4
2019-Oct-07 22:22N 34°21' E 135°09'2 5.7
2019-Oct-07 22:00N 34°21' E 135°11'0 0.1
2019-Oct-07 21:21N 34°21' E 135°12'0 0.0
2019-Oct-07 20:57N 34°21' E 135°12'0 0.0
2019-Oct-07 17:15N 34°21' E 135°11'0 0.0
2019-Oct-07 10:22N 34°21' E 135°12'0 0.0
2019-Oct-07 09:11N 34°21' E 135°12'0 0.0
2019-Oct-07 08:59N 34°21' E 135°12'0 0.0
2019-Oct-07 07:47N 34°21' E 135°12'0 0.0
2019-Oct-07 07:04N 34°21' E 135°12'0 0.3
2019-Oct-07 06:55N 34°21' E 135°11'1 1.8
2019-Oct-07 06:27N 34°21' E 135°11'2 4.9
2019-Oct-07 05:58N 34°24' E 135°10'2 5.1
2019-Oct-07 05:30N 34°26' E 135°11'3 6.3
2019-Oct-07 05:00N 34°28' E 135°14'3 5.7
2019-Oct-07 04:30N 34°30' E 135°16'3 5.9
2019-Oct-07 04:00N 34°33' E 135°18'3 6.6
2019-Oct-07 03:30N 34°36' E 135°20'3 6.3
2019-Oct-07 03:00N 34°38' E 135°23'3 3.0
2019-Oct-07 01:58N 34°39' E 135°26'0 0.1
2019-Oct-07 01:28N 34°39' E 135°26'0 0.1
2019-Oct-07 00:58N 34°39' E 135°26'0 0.0
2019-Oct-07 00:16N 34°39' E 135°26'0 0.0
2019-Oct-06 23:58N 34°39' E 135°26'0 0.0
2019-Oct-06 23:28N 34°39' E 135°26'0 0.0
2019-Oct-06 22:58N 34°39' E 135°26'0 0.0
2019-Oct-06 22:28N 34°39' E 135°26'0 0.0
2019-Oct-06 21:58N 34°39' E 135°26'0 0.0
2019-Oct-06 21:28N 34°39' E 135°26'0 0.0
2019-Oct-06 20:52N 34°39' E 135°26'0 0.0
2019-Oct-06 20:28N 34°39' E 135°26'0 0.0
2019-Oct-06 19:58N 34°39' E 135°26'0 0.0
2019-Oct-06 19:28N 34°39' E 135°26'0 0.0
2019-Oct-06 18:58N 34°39' E 135°26'0 0.0
2019-Oct-06 18:22N 34°39' E 135°26'0 0.0
2019-Oct-06 17:58N 34°39' E 135°26'0 0.0
2019-Oct-06 17:28N 34°39' E 135°26'0 0.0
2019-Oct-06 16:52N 34°39' E 135°26'0 0.0
2019-Oct-06 16:28N 34°39' E 135°26'0 0.0
2019-Oct-06 15:58N 34°39' E 135°26'0 0.0
2019-Oct-06 15:22N 34°39' E 135°26'0 0.0
2019-Oct-06 14:58N 34°39' E 135°26'0 0.0
2019-Oct-06 14:28N 34°39' E 135°26'0 0.0
2019-Oct-06 13:58N 34°39' E 135°26'0 0.0
2019-Oct-06 13:28N 34°39' E 135°26'0 0.0
2019-Oct-06 12:52N 34°39' E 135°26'0 0.0
2019-Oct-06 12:28N 34°39' E 135°26'0 0.0
2019-Oct-06 11:58N 34°39' E 135°26'0 0.0
2019-Oct-06 11:30N 34°39' E 135°26'1 1.2
2019-Oct-06 11:00N 34°39' E 135°25'3 5.1
2019-Oct-06 10:30N 34°38' E 135°23'2 4.9
2019-Oct-06 10:00N 34°36' E 135°20'2 5.0
2019-Oct-06 09:30N 34°36' E 135°17'2 4.6
2019-Oct-06 09:00N 34°36' E 135°14'3 5.5
2019-Oct-06 08:31N 34°37' E 135°12'3 6.3
2019-Oct-06 08:01N 34°40' E 135°12'1 1.0
2019-Oct-06 07:23N 34°41' E 135°11'0 0.0
2019-Oct-06 06:59N 34°41' E 135°11'1 1.8
2019-Oct-06 06:30N 34°40' E 135°11'3 5.1
2019-Oct-06 06:00N 34°38' E 135°10'1 2.2
2019-Oct-06 05:30N 34°37' E 135°11'1 1.3
2019-Oct-06 05:00N 34°37' E 135°12'1 2.0
2019-Oct-06 04:30N 34°37' E 135°11'1 1.7
2019-Oct-06 04:00N 34°37' E 135°10'1 1.0
2019-Oct-06 03:30N 34°38' E 135°09'0 1.0
2019-Oct-06 03:00N 34°38' E 135°09'0 0.5
2019-Oct-06 02:31N 34°38' E 135°08'1 2.6
2019-Oct-06 02:00N 34°38' E 135°10'2 3.5
2019-Oct-06 01:30N 34°39' E 135°11'1 2.5
2019-Oct-06 00:55N 34°41' E 135°11'0 0.0
2019-Oct-06 00:25N 34°41' E 135°11'0 0.0
2019-Oct-05 23:55N 34°41' E 135°11'0 0.0
2019-Oct-05 23:25N 34°41' E 135°11'0 0.0
2019-Oct-05 22:49N 34°41' E 135°11'0 0.0
2019-Oct-05 22:25N 34°41' E 135°11'0 0.0
2019-Oct-05 21:55N 34°41' E 135°11'0 0.0
2019-Oct-05 21:25N 34°41' E 135°11'0 0.0
2019-Oct-05 20:55N 34°41' E 135°11'0 0.0
2019-Oct-05 20:25N 34°41' E 135°11'0 0.0
2019-Oct-05 19:49N 34°41' E 135°11'0 0.0
2019-Oct-05 19:25N 34°41' E 135°11'0 0.0
2019-Oct-05 18:49N 34°41' E 135°11'0 0.0
2019-Oct-05 18:25N 34°41' E 135°11'0 0.0
2019-Oct-05 17:49N 34°41' E 135°11'0 0.0
2019-Oct-05 17:25N 34°41' E 135°11'0 0.0
2019-Oct-05 16:55N 34°41' E 135°11'0 0.0
2019-Oct-05 16:25N 34°41' E 135°11'0 0.0
2019-Oct-05 15:55N 34°41' E 135°11'0 0.0
2019-Oct-05 15:25N 34°41' E 135°11'0 0.0
2019-Oct-05 14:55N 34°41' E 135°11'0 0.0
2019-Oct-05 14:25N 34°41' E 135°11'0 0.0
2019-Oct-05 13:55N 34°41' E 135°11'0 0.0
2019-Oct-05 13:25N 34°41' E 135°11'0 0.0
2019-Oct-05 12:55N 34°41' E 135°11'0 0.0
2019-Oct-05 12:19N 34°41' E 135°11'0 0.0
2019-Oct-05 11:55N 34°41' E 135°11'0 0.0
2019-Oct-05 11:25N 34°41' E 135°11'0 0.0
2019-Oct-05 10:55N 34°41' E 135°11'0 0.0
2019-Oct-05 10:25N 34°41' E 135°11'0 0.0
2019-Oct-05 09:55N 34°41' E 135°11'0 0.0
2019-Oct-05 09:25N 34°41' E 135°11'0 0.0
2019-Oct-05 08:55N 34°41' E 135°11'0 0.0
2019-Oct-05 08:25N 34°41' E 135°11'0 0.0
2019-Oct-05 07:55N 34°41' E 135°11'0 0.0
2019-Oct-05 07:25N 34°41' E 135°11'0 0.0
2019-Oct-05 06:55N 34°41' E 135°11'0 0.0
2019-Oct-05 06:25N 34°41' E 135°11'0 0.0
2019-Oct-05 05:49N 34°41' E 135°11'0 0.1
2019-Oct-05 05:30N 34°41' E 135°11'1 2.2
2019-Oct-05 05:00N 34°40' E 135°12'2 4.3
2019-Oct-05 04:30N 34°38' E 135°12'1 1.4
2019-Oct-05 04:00N 34°38' E 135°12'1 2.4
2019-Oct-05 03:30N 34°37' E 135°11'1 3.0
2019-Oct-05 03:00N 34°37' E 135°09'1 2.1
2019-Oct-05 02:30N 34°38' E 135°08'2 4.9
2019-Oct-05 02:00N 34°38' E 135°11'3 5.1
2019-Oct-05 01:28N 34°41' E 135°11'0 0.1
2019-Oct-05 00:58N 34°41' E 135°11'0 0.0
2019-Oct-05 00:28N 34°41' E 135°11'0 0.0
2019-Oct-04 23:59N 34°41' E 135°11'0 0.0
2019-Oct-04 23:29N 34°41' E 135°11'0 0.0
2019-Oct-04 22:59N 34°41' E 135°11'0 0.1
2019-Oct-04 22:29N 34°41' E 135°11'0 0.1
2019-Oct-04 21:59N 34°41' E 135°11'0 0.0
2019-Oct-04 21:29N 34°41' E 135°11'0 0.0
2019-Oct-04 20:59N 34°41' E 135°11'0 0.0
2019-Oct-04 20:29N 34°41' E 135°11'0 0.0
2019-Oct-04 19:59N 34°41' E 135°11'0 0.0
2019-Oct-04 19:23N 34°41' E 135°11'0 0.0
2019-Oct-04 18:59N 34°41' E 135°11'0 0.0
2019-Oct-04 18:23N 34°41' E 135°11'0 0.0
2019-Oct-04 17:59N 34°41' E 135°11'0 0.0
2019-Oct-04 17:29N 34°41' E 135°11'0 0.1
2019-Oct-04 16:59N 34°41' E 135°11'0 0.1
2019-Oct-04 16:29N 34°41' E 135°11'0 0.0
2019-Oct-04 15:59N 34°41' E 135°11'0 0.0
2019-Oct-04 15:29N 34°41' E 135°11'0 0.0
2019-Oct-04 14:59N 34°41' E 135°11'0 0.0
2019-Oct-04 14:23N 34°41' E 135°11'0 0.0
2019-Oct-04 13:59N 34°41' E 135°11'0 0.0
2019-Oct-04 13:29N 34°41' E 135°11'0 0.0
2019-Oct-04 12:59N 34°41' E 135°11'0 0.0
2019-Oct-04 12:29N 34°41' E 135°11'0 0.1
2019-Oct-04 11:59N 34°41' E 135°11'0 0.1
2019-Oct-04 11:29N 34°41' E 135°11'0 0.0
2019-Oct-04 10:53N 34°41' E 135°11'0 0.0
2019-Oct-04 10:23N 34°41' E 135°11'0 0.1
2019-Oct-04 09:59N 34°41' E 135°11'0 0.1
2019-Oct-04 09:29N 34°41' E 135°11'0 0.0
2019-Oct-04 08:59N 34°41' E 135°11'0 0.0
2019-Oct-04 08:29N 34°41' E 135°11'0 0.0
2019-Oct-04 07:59N 34°41' E 135°11'0 0.0
2019-Oct-04 07:29N 34°41' E 135°11'0 0.0
2019-Oct-04 06:59N 34°41' E 135°11'0 0.0
2019-Oct-04 06:23N 34°41' E 135°11'0 0.0
2019-Oct-04 05:59N 34°41' E 135°11'0 0.0
2019-Oct-04 05:29N 34°41' E 135°11'0 0.0
2019-Oct-04 04:53N 34°41' E 135°11'0 0.0
2019-Oct-04 04:29N 34°41' E 135°11'0 0.0
2019-Oct-04 03:59N 34°41' E 135°11'0 0.0
2019-Oct-04 03:29N 34°41' E 135°11'0 0.0
2019-Oct-04 02:59N 34°41' E 135°11'0 0.0
2019-Oct-04 02:29N 34°41' E 135°11'0 0.0
2019-Oct-04 01:59N 34°41' E 135°11'0 0.0
2019-Oct-04 01:29N 34°41' E 135°11'0 0.0
2019-Oct-03 05:28N 34°41' E 135°11'0 0.0
2019-Oct-03 04:58N 34°41' E 135°11'0 0.0
2019-Oct-03 04:28N 34°41' E 135°11'0 0.0
2019-Oct-03 03:58N 34°41' E 135°11'0 0.0
2019-Oct-03 03:28N 34°41' E 135°11'0 0.0
2019-Oct-03 02:58N 34°41' E 135°11'0 0.0
2019-Oct-03 02:28N 34°41' E 135°11'0 0.0
2019-Oct-03 01:58N 34°41' E 135°11'0 0.0
2019-Oct-03 01:28N 34°41' E 135°11'0 0.0
2019-Oct-03 00:52N 34°41' E 135°11'0 0.0
2019-Oct-03 00:28N 34°41' E 135°11'0 0.0
2019-Oct-02 23:58N 34°41' E 135°11'0 0.0
2019-Oct-02 23:28N 34°41' E 135°11'0 0.0
2019-Oct-02 22:58N 34°41' E 135°11'0 0.0
2019-Oct-02 22:28N 34°41' E 135°11'0 0.0
2019-Oct-02 21:40N 34°41' E 135°11'0 0.0
2019-Oct-02 21:28N 34°41' E 135°11'0 0.0
2019-Oct-02 20:58N 34°41' E 135°11'0 0.0
2019-Oct-02 20:28N 34°41' E 135°11'0 0.0
2019-Oct-02 19:58N 34°41' E 135°11'0 0.0
2019-Oct-02 19:28N 34°41' E 135°11'0 0.0
2019-Oct-02 18:58N 34°41' E 135°11'0 0.0
2019-Oct-02 18:28N 34°41' E 135°11'0 0.0
2019-Oct-02 17:58N 34°41' E 135°11'0 0.0
2019-Oct-02 17:28N 34°41' E 135°11'0 0.0
2019-Oct-02 16:58N 34°41' E 135°11'0 0.0
2019-Oct-02 16:28N 34°41' E 135°11'0 0.0
2019-Oct-02 15:58N 34°41' E 135°11'0 0.0
2019-Oct-02 15:28N 34°41' E 135°11'0 0.0
2019-Oct-02 14:52N 34°41' E 135°11'0 0.0
2019-Oct-02 14:28N 34°41' E 135°11'0 0.0
2019-Oct-02 13:58N 34°41' E 135°11'0 0.0
2019-Oct-02 13:22N 34°41' E 135°11'0 0.0
2019-Oct-02 12:46N 34°41' E 135°11'0 0.0
2019-Oct-02 12:28N 34°41' E 135°11'0 0.0
2019-Oct-02 11:58N 34°41' E 135°11'0 0.0
2019-Oct-02 11:28N 34°41' E 135°11'0 0.0
2019-Oct-02 10:58N 34°41' E 135°11'0 0.0
2019-Oct-02 10:28N 34°41' E 135°11'0 0.0
2019-Oct-02 09:58N 34°41' E 135°11'0 0.0
2019-Oct-02 09:28N 34°41' E 135°11'0 0.0
2019-Oct-02 08:58N 34°41' E 135°11'0 0.0
2019-Oct-02 08:28N 34°41' E 135°11'0 0.0
2019-Oct-02 07:46N 34°41' E 135°11'0 0.0
2019-Oct-02 07:28N 34°41' E 135°11'0 0.0
2019-Oct-02 06:57N 34°41' E 135°11'0 0.0
2019-Oct-02 05:58N 34°41' E 135°11'0 0.0
2019-Oct-02 05:28N 34°41' E 135°11'0 0.0
2019-Oct-02 04:58N 34°41' E 135°11'0 0.0
2019-Oct-02 04:28N 34°41' E 135°11'0 0.0
2019-Oct-02 03:58N 34°41' E 135°11'0 0.0
2019-Oct-02 03:28N 34°41' E 135°11'0 0.0
2019-Oct-02 02:58N 34°41' E 135°11'0 0.0
2019-Oct-02 02:28N 34°41' E 135°11'0 0.0
2019-Oct-02 01:58N 34°41' E 135°11'0 0.0
2019-Oct-02 01:28N 34°41' E 135°11'0 0.0
2019-Oct-02 00:52N 34°41' E 135°11'0 0.0
2019-Oct-02 00:30N 34°41' E 135°11'2 3.6
2019-Oct-02 00:01N 34°39' E 135°11'2 4.6
2019-Oct-01 23:30N 34°38' E 135°09'1 2.2
2019-Oct-01 23:01N 34°37' E 135°09'2 3.5
2019-Oct-01 22:30N 34°35' E 135°10'2 3.7
2019-Oct-01 22:00N 34°33' E 135°09'1 2.5
2019-Oct-01 21:31N 34°32' E 135°09'1 2.2
2019-Oct-01 21:01N 34°32' E 135°07'1 2.0
2019-Oct-01 20:31N 34°31' E 135°07'0 0.8
2019-Oct-01 20:01N 34°30' E 135°06'0 0.5
2019-Oct-01 19:31N 34°30' E 135°06'0 0.5
2019-Oct-01 19:01N 34°30' E 135°06'0 0.3
2019-Oct-01 18:31N 34°30' E 135°06'0 0.8
2019-Oct-01 18:01N 34°29' E 135°06'1 1.3
2019-Oct-01 17:31N 34°29' E 135°06'1 1.4
2019-Oct-01 17:00N 34°28' E 135°06'1 1.6
2019-Oct-01 16:30N 34°27' E 135°06'1 1.4
2019-Oct-01 16:01N 34°27' E 135°06'1 1.6
2019-Oct-01 15:30N 34°26' E 135°06'1 2.5
2019-Oct-01 15:01N 34°25' E 135°05'1 2.2
2019-Oct-01 14:31N 34°24' E 135°05'1 1.9
2019-Oct-01 13:58N 34°23' E 135°04'1 2.1
2019-Oct-01 13:27N 34°22' E 135°03'1 2.9
2019-Oct-01 12:58N 34°21' E 135°02'2 4.5
2019-Oct-01 12:27N 34°19' E 135°01'4 7.1
2019-Oct-01 11:50N 34°15' E 134°60'  
Track history (hours):
 
Tides and Currents Weather Stations Pressure Air Temp Water Temp Dewpoint Dewpoint Depression Visibility Wind Speed Wind Dir Waves Ship Positions

Akogare (Japan)

Ship's website: http://www.akogare.or.jp/eng/top.html

Last reported at 2019-Oct-11 11:34 UTC. Time now 2019-Oct-17 15:06 UTC.
Position N 34°26' E 134°25'.

Length 52 m; draft 4.5 m.

Type: Sailing vessel. MMSI: 431005001.

Date/timePositionNaut miles runAvg speedWind from/ knotsBaromVisibWave heightAir tempDewpointWater temp
2019-Oct-11 11:34N 34°26' E 134°25'3 6.8
2019-Oct-11 11:07N 34°28' E 134°28'1 6.7
2019-Oct-11 11:00N 34°28' E 134°29'4 7.2
2019-Oct-11 10:30N 34°29' E 134°33'4 7.3
2019-Oct-11 10:00N 34°31' E 134°37'4 7.8
2019-Oct-11 09:29N 34°32' E 134°41'4 8.1
2019-Oct-11 09:00N 34°34' E 134°46'4 8.7
2019-Oct-11 08:30N 34°35' E 134°51'5 8.7
2019-Oct-11 07:56N 34°37' E 134°56'3 7.4
2019-Oct-11 07:30N 34°38' E 135°00'3 6.2
2019-Oct-11 07:00N 34°36' E 135°04'3 6.7
2019-Oct-11 06:30N 34°37' E 135°07'3 6.9
2019-Oct-11 06:00N 34°39' E 135°11'2 3.6
2019-Oct-11 05:27N 34°41' E 135°11'0 0.0
2019-Oct-11 04:57N 34°41' E 135°11'0 0.0
2019-Oct-11 04:27N 34°41' E 135°11'0 0.0
2019-Oct-11 03:57N 34°41' E 135°11'0 0.0
2019-Oct-11 03:27N 34°41' E 135°11'0 0.0
2019-Oct-11 02:45N 34°41' E 135°11'0 0.0
2019-Oct-11 02:27N 34°41' E 135°11'0 0.0
2019-Oct-11 01:51N 34°41' E 135°11'0 0.0
2019-Oct-11 01:27N 34°41' E 135°11'0 0.0
2019-Oct-11 00:57N 34°41' E 135°11'0 0.0
2019-Oct-11 00:27N 34°41' E 135°11'0 0.0
2019-Oct-10 23:57N 34°41' E 135°11'0 0.0
2019-Oct-10 23:27N 34°41' E 135°11'0 0.0
2019-Oct-10 22:57N 34°41' E 135°11'0 0.0
2019-Oct-10 22:27N 34°41' E 135°11'0 0.0
2019-Oct-10 21:51N 34°41' E 135°11'0 0.0
2019-Oct-10 21:27N 34°41' E 135°11'0 0.0
2019-Oct-10 20:51N 34°41' E 135°11'0 0.0
2019-Oct-10 20:27N 34°41' E 135°11'0 0.0
2019-Oct-10 19:57N 34°41' E 135°11'0 0.0
2019-Oct-10 19:15N 34°41' E 135°11'0 0.0
2019-Oct-10 18:57N 34°41' E 135°11'0 0.0
2019-Oct-10 18:27N 34°41' E 135°11'0 0.0
2019-Oct-10 17:57N 34°41' E 135°11'0 0.0
2019-Oct-10 17:27N 34°41' E 135°11'0 0.0
2019-Oct-10 16:57N 34°41' E 135°11'0 0.0
2019-Oct-10 16:21N 34°41' E 135°11'0 0.0
2019-Oct-10 15:57N 34°41' E 135°11'0 0.0
2019-Oct-10 15:27N 34°41' E 135°11'0 0.0
2019-Oct-10 14:57N 34°41' E 135°11'0 0.0
2019-Oct-10 14:27N 34°41' E 135°11'0 0.0
2019-Oct-10 13:57N 34°41' E 135°11'0 0.0
2019-Oct-10 13:27N 34°41' E 135°11'0 0.0
2019-Oct-10 12:57N 34°41' E 135°11'0 0.0
2019-Oct-10 12:27N 34°41' E 135°11'0 0.0
2019-Oct-10 11:57N 34°41' E 135°11'0 0.0
2019-Oct-10 11:15N 34°41' E 135°11'0 0.0
2019-Oct-10 10:51N 34°41' E 135°11'0 0.0
2019-Oct-10 10:27N 34°41' E 135°11'0 0.0
2019-Oct-10 09:57N 34°41' E 135°11'0 0.0
2019-Oct-10 09:21N 34°41' E 135°11'0 0.0
2019-Oct-10 08:51N 34°41' E 135°11'0 0.0
2019-Oct-10 08:27N 34°41' E 135°11'0 0.0
2019-Oct-10 07:57N 34°41' E 135°11'0 0.0
2019-Oct-10 07:27N 34°41' E 135°11'0 0.0
2019-Oct-10 06:57N 34°41' E 135°11'0 0.0
2019-Oct-10 06:27N 34°41' E 135°11'0 0.0
2019-Oct-10 05:57N 34°41' E 135°11'0 0.0
2019-Oct-10 05:27N 34°41' E 135°11'0 0.0
2019-Oct-10 04:45N 34°41' E 135°11'0 0.0
2019-Oct-10 04:27N 34°41' E 135°11'0 0.0
2019-Oct-10 03:57N 34°41' E 135°11'0 0.0
2019-Oct-10 03:21N 34°41' E 135°11'0 0.0
2019-Oct-10 02:57N 34°41' E 135°11'0 0.0
2019-Oct-10 02:27N 34°41' E 135°11'0 0.0
2019-Oct-10 01:57N 34°41' E 135°11'0 0.0
2019-Oct-10 01:27N 34°41' E 135°11'0 0.0
2019-Oct-10 00:51N 34°41' E 135°11'0 0.0
2019-Oct-10 00:27N 34°41' E 135°11'0 0.0
2019-Oct-09 23:51N 34°41' E 135°11'0 0.0
2019-Oct-09 23:24N 34°41' E 135°11'0 0.0
2019-Oct-09 22:48N 34°41' E 135°11'0 0.0
2019-Oct-09 22:30N 34°41' E 135°11'0 0.0
2019-Oct-09 22:00N 34°41' E 135°11'0 0.0
2019-Oct-09 21:30N 34°41' E 135°11'0 0.0
2019-Oct-09 21:00N 34°41' E 135°11'0 0.0
2019-Oct-09 20:30N 34°41' E 135°11'0 0.0
2019-Oct-09 20:00N 34°41' E 135°11'0 0.0
2019-Oct-09 19:30N 34°41' E 135°11'0 0.0
2019-Oct-09 19:00N 34°41' E 135°11'0 0.0
2019-Oct-09 18:24N 34°41' E 135°11'0 0.0
2019-Oct-09 18:00N 34°41' E 135°11'0 0.0
2019-Oct-09 17:30N 34°41' E 135°11'0 0.0
2019-Oct-09 17:00N 34°41' E 135°11'0 0.0
2019-Oct-09 16:30N 34°41' E 135°11'0 0.0
2019-Oct-09 16:00N 34°41' E 135°11'0 0.0
2019-Oct-09 15:24N 34°41' E 135°11'0 0.0
2019-Oct-09 15:00N 34°41' E 135°11'0 0.0
2019-Oct-09 14:30N 34°41' E 135°11'0 0.0
2019-Oct-09 14:00N 34°41' E 135°11'0 0.0
2019-Oct-09 13:30N 34°41' E 135°11'0 0.0
2019-Oct-09 13:00N 34°41' E 135°11'0 0.0
2019-Oct-09 12:30N 34°41' E 135°11'0 0.0
2019-Oct-09 12:00N 34°41' E 135°11'0 0.0
2019-Oct-09 11:30N 34°41' E 135°11'0 0.0
2019-Oct-09 10:54N 34°41' E 135°11'0 0.0
2019-Oct-09 10:24N 34°41' E 135°11'0 0.0
2019-Oct-09 10:00N 34°41' E 135°11'0 0.0
2019-Oct-09 09:30N 34°41' E 135°11'0 0.0
2019-Oct-09 09:00N 34°41' E 135°11'0 0.0
2019-Oct-09 08:30N 34°41' E 135°11'0 0.0
2019-Oct-09 07:54N 34°41' E 135°11'0 0.0
2019-Oct-09 07:30N 34°41' E 135°11'0 0.0
2019-Oct-09 06:58N 34°41' E 135°11'0 0.0
2019-Oct-09 06:28N 34°41' E 135°11'0 0.0
2019-Oct-09 05:52N 34°41' E 135°11'0 0.0
2019-Oct-09 05:28N 34°41' E 135°11'0 0.0
2019-Oct-09 04:58N 34°41' E 135°11'0 0.0
2019-Oct-09 04:28N 34°41' E 135°11'0 0.0
2019-Oct-09 03:58N 34°41' E 135°11'0 0.0
2019-Oct-09 03:22N 34°41' E 135°11'0 0.0
2019-Oct-09 02:58N 34°41' E 135°11'0 0.0
2019-Oct-09 02:28N 34°41' E 135°11'0 0.0
2019-Oct-09 01:58N 34°41' E 135°11'0 0.0
2019-Oct-09 01:28N 34°41' E 135°11'0 0.0
2019-Oct-09 00:58N 34°41' E 135°11'0 0.0
2019-Oct-09 00:28N 34°41' E 135°11'0 0.0
2019-Oct-08 23:58N 34°41' E 135°11'0 0.0
2019-Oct-08 23:28N 34°41' E 135°11'0 0.0
2019-Oct-08 22:52N 34°41' E 135°11'0 0.0
2019-Oct-08 22:22N 34°41' E 135°11'0 0.0
2019-Oct-08 21:52N 34°41' E 135°11'0 0.0
2019-Oct-08 21:28N 34°41' E 135°11'0 0.0
2019-Oct-08 20:58N 34°41' E 135°11'0 0.0
2019-Oct-08 20:28N 34°41' E 135°11'0 0.0
2019-Oct-08 19:58N 34°41' E 135°11'0 0.0
2019-Oct-08 19:28N 34°41' E 135°11'0 0.0
2019-Oct-08 18:58N 34°41' E 135°11'0 0.0
2019-Oct-08 18:28N 34°41' E 135°11'0 0.0
2019-Oct-08 17:58N 34°41' E 135°11'0 0.0
2019-Oct-08 17:28N 34°41' E 135°11'0 0.0
2019-Oct-08 16:58N 34°41' E 135°11'0 0.0
2019-Oct-08 16:28N 34°41' E 135°11'0 0.0
2019-Oct-08 15:58N 34°41' E 135°11'0 0.0
2019-Oct-08 15:28N 34°41' E 135°11'0 0.0
2019-Oct-08 14:58N 34°41' E 135°11'0 0.0
2019-Oct-08 14:28N 34°41' E 135°11'0 0.0
2019-Oct-08 13:58N 34°41' E 135°11'0 0.0
2019-Oct-08 13:28N 34°41' E 135°11'0 0.0
2019-Oct-08 12:58N 34°41' E 135°11'0 0.0
2019-Oct-08 12:22N 34°41' E 135°11'0 0.0
2019-Oct-08 11:58N 34°41' E 135°11'0 0.0
2019-Oct-08 11:28N 34°41' E 135°11'0 0.7
2019-Oct-08 11:00N 34°41' E 135°11'3 5.8
2019-Oct-08 10:30N 34°38' E 135°11'3 5.8
2019-Oct-08 10:00N 34°35' E 135°10'3 5.6
2019-Oct-08 09:30N 34°32' E 135°09'3 6.0
2019-Oct-08 09:00N 34°30' E 135°08'3 6.2
2019-Oct-08 08:30N 34°27' E 135°07'3 6.3
2019-Oct-08 08:00N 34°24' E 135°06'5 6.4
2019-Oct-08 07:15N 34°19' E 135°04'2 0.6
2019-Oct-08 04:11N 34°17' E 135°04'1 4.9
2019-Oct-08 03:57N 34°18' E 135°04'1 1.1
2019-Oct-08 03:15N 34°18' E 135°03'0 0.0
2019-Oct-08 02:57N 34°18' E 135°03'0 0.0
2019-Oct-08 02:30N 34°18' E 135°03'0 0.0
2019-Oct-08 01:48N 34°18' E 135°03'0 0.0
2019-Oct-08 01:22N 34°18' E 135°03'0 0.0
2019-Oct-08 00:45N 34°18' E 135°03'0 0.0
2019-Oct-08 00:23N 34°18' E 135°03'0 0.0
2019-Oct-07 23:59N 34°18' E 135°03'0 0.3
2019-Oct-07 23:28N 34°18' E 135°03'2 4.8
2019-Oct-07 22:59N 34°20' E 135°05'3 5.4
2019-Oct-07 22:22N 34°21' E 135°09'2 5.7
2019-Oct-07 22:00N 34°21' E 135°11'0 0.1
2019-Oct-07 21:21N 34°21' E 135°12'0 0.0
2019-Oct-07 20:57N 34°21' E 135°12'0 0.0
2019-Oct-07 17:15N 34°21' E 135°11'0 0.0
2019-Oct-07 10:22N 34°21' E 135°12'0 0.0
2019-Oct-07 09:11N 34°21' E 135°12'0 0.0
2019-Oct-07 08:59N 34°21' E 135°12'0 0.0
2019-Oct-07 07:47N 34°21' E 135°12'0 0.0
2019-Oct-07 07:04N 34°21' E 135°12'0 0.3
2019-Oct-07 06:55N 34°21' E 135°11'1 1.8
2019-Oct-07 06:27N 34°21' E 135°11'2 4.9
2019-Oct-07 05:58N 34°24' E 135°10'2 5.1
2019-Oct-07 05:30N 34°26' E 135°11'3 6.3
2019-Oct-07 05:00N 34°28' E 135°14'3 5.7
2019-Oct-07 04:30N 34°30' E 135°16'3 5.9
2019-Oct-07 04:00N 34°33' E 135°18'3 6.6
2019-Oct-07 03:30N 34°36' E 135°20'3 6.3
2019-Oct-07 03:00N 34°38' E 135°23'3 3.0
2019-Oct-07 01:58N 34°39' E 135°26'0 0.1
2019-Oct-07 01:28N 34°39' E 135°26'0 0.1
2019-Oct-07 00:58N 34°39' E 135°26'0 0.0
2019-Oct-07 00:16N 34°39' E 135°26'0 0.0
2019-Oct-06 23:58N 34°39' E 135°26'0 0.0
2019-Oct-06 23:28N 34°39' E 135°26'0 0.0
2019-Oct-06 22:58N 34°39' E 135°26'0 0.0
2019-Oct-06 22:28N 34°39' E 135°26'0 0.0
2019-Oct-06 21:58N 34°39' E 135°26'0 0.0
2019-Oct-06 21:28N 34°39' E 135°26'0 0.0
2019-Oct-06 20:52N 34°39' E 135°26'0 0.0
2019-Oct-06 20:28N 34°39' E 135°26'0 0.0
2019-Oct-06 19:58N 34°39' E 135°26'0 0.0
2019-Oct-06 19:28N 34°39' E 135°26'0 0.0
2019-Oct-06 18:58N 34°39' E 135°26'0 0.0
2019-Oct-06 18:22N 34°39' E 135°26'0 0.0
2019-Oct-06 17:58N 34°39' E 135°26'0 0.0
2019-Oct-06 17:28N 34°39' E 135°26'0 0.0
2019-Oct-06 16:52N 34°39' E 135°26'0 0.0
2019-Oct-06 16:28N 34°39' E 135°26'0 0.0
2019-Oct-06 15:58N 34°39' E 135°26'0 0.0
2019-Oct-06 15:22N 34°39' E 135°26'0 0.0
2019-Oct-06 14:58N 34°39' E 135°26'0 0.0
2019-Oct-06 14:28N 34°39' E 135°26'0 0.0
2019-Oct-06 13:58N 34°39' E 135°26'0 0.0
2019-Oct-06 13:28N 34°39' E 135°26'0 0.0
2019-Oct-06 12:52N 34°39' E 135°26'0 0.0
2019-Oct-06 12:28N 34°39' E 135°26'0 0.0
2019-Oct-06 11:58N 34°39' E 135°26'0 0.0
2019-Oct-06 11:30N 34°39' E 135°26'1 1.2
2019-Oct-06 11:00N 34°39' E 135°25'3 5.1
2019-Oct-06 10:30N 34°38' E 135°23'2 4.9
2019-Oct-06 10:00N 34°36' E 135°20'2 5.0
2019-Oct-06 09:30N 34°36' E 135°17'2 4.6
2019-Oct-06 09:00N 34°36' E 135°14'3 5.5
2019-Oct-06 08:31N 34°37' E 135°12'3 6.3
2019-Oct-06 08:01N 34°40' E 135°12'1 1.0
2019-Oct-06 07:23N 34°41' E 135°11'0 0.0
2019-Oct-06 06:59N 34°41' E 135°11'1 1.8
2019-Oct-06 06:30N 34°40' E 135°11'3 5.1
2019-Oct-06 06:00N 34°38' E 135°10'1 2.2
2019-Oct-06 05:30N 34°37' E 135°11'1 1.3
2019-Oct-06 05:00N 34°37' E 135°12'1 2.0
2019-Oct-06 04:30N 34°37' E 135°11'1 1.7
2019-Oct-06 04:00N 34°37' E 135°10'1 1.0
2019-Oct-06 03:30N 34°38' E 135°09'0 1.0
2019-Oct-06 03:00N 34°38' E 135°09'0 0.5
2019-Oct-06 02:31N 34°38' E 135°08'1 2.6
2019-Oct-06 02:00N 34°38' E 135°10'2 3.5
2019-Oct-06 01:30N 34°39' E 135°11'1 2.5
2019-Oct-06 00:55N 34°41' E 135°11'0 0.0
2019-Oct-06 00:25N 34°41' E 135°11'0 0.0
2019-Oct-05 23:55N 34°41' E 135°11'0 0.0
2019-Oct-05 23:25N 34°41' E 135°11'0 0.0
2019-Oct-05 22:49N 34°41' E 135°11'0 0.0
2019-Oct-05 22:25N 34°41' E 135°11'0 0.0
2019-Oct-05 21:55N 34°41' E 135°11'0 0.0
2019-Oct-05 21:25N 34°41' E 135°11'0 0.0
2019-Oct-05 20:55N 34°41' E 135°11'0 0.0
2019-Oct-05 20:25N 34°41' E 135°11'0 0.0
2019-Oct-05 19:49N 34°41' E 135°11'0 0.0
2019-Oct-05 19:25N 34°41' E 135°11'0 0.0
2019-Oct-05 18:49N 34°41' E 135°11'0 0.0
2019-Oct-05 18:25N 34°41' E 135°11'0 0.0
2019-Oct-05 17:49N 34°41' E 135°11'0 0.0
2019-Oct-05 17:25N 34°41' E 135°11'0 0.0
2019-Oct-05 16:55N 34°41' E 135°11'0 0.0
2019-Oct-05 16:25N 34°41' E 135°11'0 0.0
2019-Oct-05 15:55N 34°41' E 135°11'0 0.0
2019-Oct-05 15:25N 34°41' E 135°11'0 0.0
2019-Oct-05 14:55N 34°41' E 135°11'0 0.0
2019-Oct-05 14:25N 34°41' E 135°11'0 0.0
2019-Oct-05 13:55N 34°41' E 135°11'0 0.0
2019-Oct-05 13:25N 34°41' E 135°11'0 0.0
2019-Oct-05 12:55N 34°41' E 135°11'0 0.0
2019-Oct-05 12:19N 34°41' E 135°11'0 0.0
2019-Oct-05 11:55N 34°41' E 135°11'0 0.0
2019-Oct-05 11:25N 34°41' E 135°11'0 0.0
2019-Oct-05 10:55N 34°41' E 135°11'0 0.0
2019-Oct-05 10:25N 34°41' E 135°11'0 0.0
2019-Oct-05 09:55N 34°41' E 135°11'0 0.0
2019-Oct-05 09:25N 34°41' E 135°11'0 0.0
2019-Oct-05 08:55N 34°41' E 135°11'0 0.0
2019-Oct-05 08:25N 34°41' E 135°11'0 0.0
2019-Oct-05 07:55N 34°41' E 135°11'0 0.0
2019-Oct-05 07:25N 34°41' E 135°11'0 0.0
2019-Oct-05 06:55N 34°41' E 135°11'0 0.0
2019-Oct-05 06:25N 34°41' E 135°11'0 0.0
2019-Oct-05 05:49N 34°41' E 135°11'0 0.1
2019-Oct-05 05:30N 34°41' E 135°11'1 2.2
2019-Oct-05 05:00N 34°40' E 135°12'2 4.3
2019-Oct-05 04:30N 34°38' E 135°12'1 1.4
2019-Oct-05 04:00N 34°38' E 135°12'1 2.4
2019-Oct-05 03:30N 34°37' E 135°11'1 3.0
2019-Oct-05 03:00N 34°37' E 135°09'1 2.1
2019-Oct-05 02:30N 34°38' E 135°08'2 4.9
2019-Oct-05 02:00N 34°38' E 135°11'3 5.1
2019-Oct-05 01:28N 34°41' E 135°11'0 0.1
2019-Oct-05 00:58N 34°41' E 135°11'0 0.0
2019-Oct-05 00:28N 34°41' E 135°11'0 0.0
2019-Oct-04 23:59N 34°41' E 135°11'0 0.0
2019-Oct-04 23:29N 34°41' E 135°11'0 0.0
2019-Oct-04 22:59N 34°41' E 135°11'0 0.1
2019-Oct-04 22:29N 34°41' E 135°11'0 0.1
2019-Oct-04 21:59N 34°41' E 135°11'0 0.0
2019-Oct-04 21:29N 34°41' E 135°11'0 0.0
2019-Oct-04 20:59N 34°41' E 135°11'0 0.0
2019-Oct-04 20:29N 34°41' E 135°11'0 0.0
2019-Oct-04 19:59N 34°41' E 135°11'0 0.0
2019-Oct-04 19:23N 34°41' E 135°11'0 0.0
2019-Oct-04 18:59N 34°41' E 135°11'0 0.0
2019-Oct-04 18:23N 34°41' E 135°11'0 0.0
2019-Oct-04 17:59N 34°41' E 135°11'0 0.0
2019-Oct-04 17:29N 34°41' E 135°11'0 0.1
2019-Oct-04 16:59N 34°41' E 135°11'0 0.1
2019-Oct-04 16:29N 34°41' E 135°11'0 0.0
2019-Oct-04 15:59N 34°41' E 135°11'0 0.0
2019-Oct-04 15:29N 34°41' E 135°11'0 0.0
2019-Oct-04 14:59N 34°41' E 135°11'0 0.0
2019-Oct-04 14:23N 34°41' E 135°11'0 0.0
2019-Oct-04 13:59N 34°41' E 135°11'0 0.0
2019-Oct-04 13:29N 34°41' E 135°11'0 0.0
2019-Oct-04 12:59N 34°41' E 135°11'0 0.0
2019-Oct-04 12:29N 34°41' E 135°11'0 0.1
2019-Oct-04 11:59N 34°41' E 135°11'0 0.1
2019-Oct-04 11:29N 34°41' E 135°11'0 0.0
2019-Oct-04 10:53N 34°41' E 135°11'0 0.0
2019-Oct-04 10:23N 34°41' E 135°11'0 0.1
2019-Oct-04 09:59N 34°41' E 135°11'0 0.1
2019-Oct-04 09:29N 34°41' E 135°11'0 0.0
2019-Oct-04 08:59N 34°41' E 135°11'0 0.0
2019-Oct-04 08:29N 34°41' E 135°11'0 0.0
2019-Oct-04 07:59N 34°41' E 135°11'0 0.0
2019-Oct-04 07:29N 34°41' E 135°11'0 0.0
2019-Oct-04 06:59N 34°41' E 135°11'0 0.0
2019-Oct-04 06:23N 34°41' E 135°11'0 0.0
2019-Oct-04 05:59N 34°41' E 135°11'0 0.0
2019-Oct-04 05:29N 34°41' E 135°11'0 0.0
2019-Oct-04 04:53N 34°41' E 135°11'0 0.0
2019-Oct-04 04:29N 34°41' E 135°11'0 0.0
2019-Oct-04 03:59N 34°41' E 135°11'0 0.0
2019-Oct-04 03:29N 34°41' E 135°11'0 0.0
2019-Oct-04 02:59N 34°41' E 135°11'0 0.0
2019-Oct-04 02:29N 34°41' E 135°11'0 0.0
2019-Oct-04 01:59N 34°41' E 135°11'0 0.0
2019-Oct-04 01:29N 34°41' E 135°11'0 0.0
2019-Oct-03 05:28N 34°41' E 135°11'0 0.0
2019-Oct-03 04:58N 34°41' E 135°11'0 0.0
2019-Oct-03 04:28N 34°41' E 135°11'0 0.0
2019-Oct-03 03:58N 34°41' E 135°11'0 0.0
2019-Oct-03 03:28N 34°41' E 135°11'0 0.0
2019-Oct-03 02:58N 34°41' E 135°11'0 0.0
2019-Oct-03 02:28N 34°41' E 135°11'0 0.0
2019-Oct-03 01:58N 34°41' E 135°11'0 0.0
2019-Oct-03 01:28N 34°41' E 135°11'0 0.0
2019-Oct-03 00:52N 34°41' E 135°11'0 0.0
2019-Oct-03 00:28N 34°41' E 135°11'0 0.0
2019-Oct-02 23:58N 34°41' E 135°11'0 0.0
2019-Oct-02 23:28N 34°41' E 135°11'0 0.0
2019-Oct-02 22:58N 34°41' E 135°11'0 0.0
2019-Oct-02 22:28N 34°41' E 135°11'0 0.0
2019-Oct-02 21:40N 34°41' E 135°11'0 0.0
2019-Oct-02 21:28N 34°41' E 135°11'0 0.0
2019-Oct-02 20:58N 34°41' E 135°11'0 0.0
2019-Oct-02 20:28N 34°41' E 135°11'0 0.0
2019-Oct-02 19:58N 34°41' E 135°11'0 0.0
2019-Oct-02 19:28N 34°41' E 135°11'0 0.0
2019-Oct-02 18:58N 34°41' E 135°11'0 0.0
2019-Oct-02 18:28N 34°41' E 135°11'0 0.0
2019-Oct-02 17:58N 34°41' E 135°11'0 0.0
2019-Oct-02 17:28N 34°41' E 135°11'0 0.0
2019-Oct-02 16:58N 34°41' E 135°11'0 0.0
2019-Oct-02 16:28N 34°41' E 135°11'0 0.0
2019-Oct-02 15:58N 34°41' E 135°11'0 0.0
2019-Oct-02 15:28N 34°41' E 135°11'0 0.0
2019-Oct-02 14:52N 34°41' E 135°11'0 0.0
2019-Oct-02 14:28N 34°41' E 135°11'0 0.0
2019-Oct-02 13:58N 34°41' E 135°11'0 0.0
2019-Oct-02 13:22N 34°41' E 135°11'0 0.0
2019-Oct-02 12:46N 34°41' E 135°11'0 0.0
2019-Oct-02 12:28N 34°41' E 135°11'0 0.0
2019-Oct-02 11:58N 34°41' E 135°11'0 0.0
2019-Oct-02 11:28N 34°41' E 135°11'0 0.0
2019-Oct-02 10:58N 34°41' E 135°11'0 0.0
2019-Oct-02 10:28N 34°41' E 135°11'0 0.0
2019-Oct-02 09:58N 34°41' E 135°11'0 0.0
2019-Oct-02 09:28N 34°41' E 135°11'0 0.0
2019-Oct-02 08:58N 34°41' E 135°11'0 0.0
2019-Oct-02 08:28N 34°41' E 135°11'0 0.0
2019-Oct-02 07:46N 34°41' E 135°11'0 0.0
2019-Oct-02 07:28N 34°41' E 135°11'0 0.0
2019-Oct-02 06:57N 34°41' E 135°11'0 0.0
2019-Oct-02 05:58N 34°41' E 135°11'0 0.0
2019-Oct-02 05:28N 34°41' E 135°11'0 0.0
2019-Oct-02 04:58N 34°41' E 135°11'0 0.0
2019-Oct-02 04:28N 34°41' E 135°11'0 0.0
2019-Oct-02 03:58N 34°41' E 135°11'0 0.0
2019-Oct-02 03:28N 34°41' E 135°11'0 0.0
2019-Oct-02 02:58N 34°41' E 135°11'0 0.0
2019-Oct-02 02:28N 34°41' E 135°11'0 0.0
2019-Oct-02 01:58N 34°41' E 135°11'0 0.0
2019-Oct-02 01:28N 34°41' E 135°11'0 0.0
2019-Oct-02 00:52N 34°41' E 135°11'0 0.0
2019-Oct-02 00:30N 34°41' E 135°11'2 3.6
2019-Oct-02 00:01N 34°39' E 135°11'2 4.6
2019-Oct-01 23:30N 34°38' E 135°09'1 2.2
2019-Oct-01 23:01N 34°37' E 135°09'2 3.5
2019-Oct-01 22:30N 34°35' E 135°10'2 3.7
2019-Oct-01 22:00N 34°33' E 135°09'1 2.5
2019-Oct-01 21:31N 34°32' E 135°09'1 2.2
2019-Oct-01 21:01N 34°32' E 135°07'1 2.0
2019-Oct-01 20:31N 34°31' E 135°07'0 0.8
2019-Oct-01 20:01N 34°30' E 135°06'0 0.5
2019-Oct-01 19:31N 34°30' E 135°06'0 0.5
2019-Oct-01 19:01N 34°30' E 135°06'0 0.3
2019-Oct-01 18:31N 34°30' E 135°06'0 0.8
2019-Oct-01 18:01N 34°29' E 135°06'1 1.3
2019-Oct-01 17:31N 34°29' E 135°06'1 1.4
2019-Oct-01 17:00N 34°28' E 135°06'1 1.6
2019-Oct-01 16:30N 34°27' E 135°06'1 1.4
2019-Oct-01 16:01N 34°27' E 135°06'1 1.6
2019-Oct-01 15:30N 34°26' E 135°06'1 2.5
2019-Oct-01 15:01N 34°25' E 135°05'1 2.2
2019-Oct-01 14:31N 34°24' E 135°05'1 1.9
2019-Oct-01 13:58N 34°23' E 135°04'1 2.1
2019-Oct-01 13:27N 34°22' E 135°03'1 2.9
2019-Oct-01 12:58N 34°21' E 135°02'2 4.5
2019-Oct-01 12:27N 34°19' E 135°01'4 7.1
2019-Oct-01 11:50N 34°15' E 134°60'  

Dump ship's entire track history